sensor_id;sensor_type;location;lat;lon;timestamp;P1;durP1;ratioP1;P2;durP2;ratioP2
29402;SDS011;16382;59.942;30.472;2022-09-09T00:00:59;79.78;;;15.32;;
29402;SDS011;16382;59.942;30.472;2022-09-09T00:03:35;72.88;;;12.80;;
29402;SDS011;16382;59.942;30.472;2022-09-09T00:06:13;77.38;;;13.45;;
29402;SDS011;16382;59.942;30.472;2022-09-09T00:08:51;67.22;;;13.32;;
29402;SDS011;16382;59.942;30.472;2022-09-09T00:11:28;64.13;;;11.77;;
29402;SDS011;16382;59.942;30.472;2022-09-09T00:14:03;61.17;;;11.18;;
29402;SDS011;16382;59.942;30.472;2022-09-09T00:16:40;52.58;;;9.52;;
29402;SDS011;16382;59.942;30.472;2022-09-09T00:19:17;42.30;;;10.13;;
29402;SDS011;16382;59.942;30.472;2022-09-09T00:21:52;56.85;;;11.70;;
29402;SDS011;16382;59.942;30.472;2022-09-09T00:24:32;41.55;;;10.93;;
29402;SDS011;16382;59.942;30.472;2022-09-09T00:27:06;39.63;;;8.70;;
29402;SDS011;16382;59.942;30.472;2022-09-09T00:29:43;46.65;;;10.68;;
29402;SDS011;16382;59.942;30.472;2022-09-09T00:32:21;44.65;;;10.85;;
29402;SDS011;16382;59.942;30.472;2022-09-09T00:34:52;51.03;;;10.35;;
29402;SDS011;16382;59.942;30.472;2022-09-09T00:37:25;47.60;;;11.25;;
29402;SDS011;16382;59.942;30.472;2022-09-09T00:39:57;40.08;;;10.95;;
29402;SDS011;16382;59.942;30.472;2022-09-09T00:42:31;50.22;;;12.23;;
29402;SDS011;16382;59.942;30.472;2022-09-09T00:45:15;44.55;;;10.10;;
29402;SDS011;16382;59.942;30.472;2022-09-09T00:48:10;51.72;;;9.52;;
29402;SDS011;16382;59.942;30.472;2022-09-09T00:50:42;51.55;;;9.07;;
29402;SDS011;16382;59.942;30.472;2022-09-09T00:53:30;31.67;;;8.55;;
29402;SDS011;16382;59.942;30.472;2022-09-09T00:56:09;30.88;;;7.65;;
29402;SDS011;16382;59.942;30.472;2022-09-09T00:58:42;22.40;;;7.03;;
29402;SDS011;16382;59.942;30.472;2022-09-09T01:01:18;18.40;;;7.55;;
29402;SDS011;16382;59.942;30.472;2022-09-09T01:03:47;27.38;;;8.02;;
29402;SDS011;16382;59.942;30.472;2022-09-09T01:06:20;29.83;;;8.52;;
29402;SDS011;16382;59.942;30.472;2022-09-09T01:09:05;26.00;;;7.50;;
29402;SDS011;16382;59.942;30.472;2022-09-09T01:11:43;20.00;;;7.40;;
29402;SDS011;16382;59.942;30.472;2022-09-09T01:14:24;28.83;;;7.72;;
29402;SDS011;16382;59.942;30.472;2022-09-09T01:17:09;14.30;;;7.15;;
29402;SDS011;16382;59.942;30.472;2022-09-09T01:20:02;20.38;;;5.95;;
29402;SDS011;16382;59.942;30.472;2022-09-09T01:22:44;20.80;;;6.50;;
29402;SDS011;16382;59.942;30.472;2022-09-09T01:25:28;17.13;;;6.50;;
29402;SDS011;16382;59.942;30.472;2022-09-09T01:28:25;15.82;;;6.25;;
29402;SDS011;16382;59.942;30.472;2022-09-09T01:31:01;11.27;;;5.97;;
29402;SDS011;16382;59.942;30.472;2022-09-09T01:33:37;71.50;;;11.15;;
29402;SDS011;16382;59.942;30.472;2022-09-09T01:36:05;58.15;;;9.65;;
29402;SDS011;16382;59.942;30.472;2022-09-09T01:38:44;40.40;;;8.60;;
29402;SDS011;16382;59.942;30.472;2022-09-09T01:41:11;37.72;;;8.30;;
29402;SDS011;16382;59.942;30.472;2022-09-09T01:44:01;43.03;;;8.05;;
29402;SDS011;16382;59.942;30.472;2022-09-09T01:46:32;29.85;;;7.80;;
29402;SDS011;16382;59.942;30.472;2022-09-09T01:49:00;27.65;;;7.43;;
29402;SDS011;16382;59.942;30.472;2022-09-09T01:51:33;42.65;;;8.15;;
29402;SDS011;16382;59.942;30.472;2022-09-09T01:54:05;23.95;;;6.95;;
29402;SDS011;16382;59.942;30.472;2022-09-09T01:56:36;30.02;;;8.40;;
29402;SDS011;16382;59.942;30.472;2022-09-09T01:59:25;36.15;;;9.23;;
29402;SDS011;16382;59.942;30.472;2022-09-09T02:02:13;35.50;;;7.57;;
29402;SDS011;16382;59.942;30.472;2022-09-09T02:05:11;41.20;;;8.18;;
29402;SDS011;16382;59.942;30.472;2022-09-09T02:07:58;41.80;;;7.80;;
29402;SDS011;16382;59.942;30.472;2022-09-09T02:10:45;18.05;;;6.53;;
29402;SDS011;16382;59.942;30.472;2022-09-09T02:13:29;29.10;;;6.70;;
29402;SDS011;16382;59.942;30.472;2022-09-09T02:16:05;30.73;;;7.10;;
29402;SDS011;16382;59.942;30.472;2022-09-09T02:18:36;37.83;;;7.57;;
29402;SDS011;16382;59.942;30.472;2022-09-09T02:21:11;26.70;;;7.35;;
29402;SDS011;16382;59.942;30.472;2022-09-09T02:23:40;20.35;;;7.40;;
29402;SDS011;16382;59.942;30.472;2022-09-09T02:26:12;21.73;;;6.85;;
29402;SDS011;16382;59.942;30.472;2022-09-09T02:28:52;22.65;;;7.25;;
29402;SDS011;16382;59.942;30.472;2022-09-09T02:31:24;19.15;;;6.25;;
29402;SDS011;16382;59.942;30.472;2022-09-09T02:33:59;12.88;;;6.43;;
29402;SDS011;16382;59.942;30.472;2022-09-09T02:36:31;17.48;;;6.25;;
29402;SDS011;16382;59.942;30.472;2022-09-09T02:39:00;16.90;;;6.10;;
29402;SDS011;16382;59.942;30.472;2022-09-09T02:41:34;23.70;;;6.82;;
29402;SDS011;16382;59.942;30.472;2022-09-09T02:44:05;17.50;;;6.25;;
29402;SDS011;16382;59.942;30.472;2022-09-09T02:46:43;23.33;;;8.05;;
29402;SDS011;16382;59.942;30.472;2022-09-09T02:49:31;32.60;;;8.73;;
29402;SDS011;16382;59.942;30.472;2022-09-09T02:52:11;32.20;;;7.03;;
29402;SDS011;16382;59.942;30.472;2022-09-09T02:54:41;26.83;;;8.13;;
29402;SDS011;16382;59.942;30.472;2022-09-09T02:57:11;34.40;;;8.23;;
29402;SDS011;16382;59.942;30.472;2022-09-09T02:59:45;29.58;;;6.93;;
29402;SDS011;16382;59.942;30.472;2022-09-09T03:02:15;24.83;;;6.93;;
29402;SDS011;16382;59.942;30.472;2022-09-09T03:04:48;35.35;;;8.00;;
29402;SDS011;16382;59.942;30.472;2022-09-09T03:07:17;25.38;;;7.60;;
29402;SDS011;16382;59.942;30.472;2022-09-09T03:09:46;23.17;;;6.78;;
29402;SDS011;16382;59.942;30.472;2022-09-09T03:12:14;22.70;;;8.52;;
29402;SDS011;16382;59.942;30.472;2022-09-09T03:14:42;24.95;;;8.50;;
29402;SDS011;16382;59.942;30.472;2022-09-09T03:17:11;27.75;;;7.30;;
29402;SDS011;16382;59.942;30.472;2022-09-09T03:19:48;21.33;;;7.53;;
29402;SDS011;16382;59.942;30.472;2022-09-09T03:22:17;21.30;;;7.22;;
29402;SDS011;16382;59.942;30.472;2022-09-09T03:24:46;28.10;;;7.20;;
29402;SDS011;16382;59.942;30.472;2022-09-09T03:27:14;37.08;;;8.38;;
29402;SDS011;16382;59.942;30.472;2022-09-09T03:29:41;22.27;;;7.25;;
29402;SDS011;16382;59.942;30.472;2022-09-09T03:32:13;17.77;;;7.13;;
29402;SDS011;16382;59.942;30.472;2022-09-09T03:34:42;23.80;;;6.13;;
29402;SDS011;16382;59.942;30.472;2022-09-09T03:37:13;22.27;;;7.15;;
29402;SDS011;16382;59.942;30.472;2022-09-09T03:39:41;19.08;;;8.02;;
29402;SDS011;16382;59.942;30.472;2022-09-09T03:42:11;19.83;;;7.28;;
29402;SDS011;16382;59.942;30.472;2022-09-09T03:44:44;27.15;;;6.60;;
29402;SDS011;16382;59.942;30.472;2022-09-09T03:47:16;19.10;;;5.97;;
29402;SDS011;16382;59.942;30.472;2022-09-09T03:49:44;29.13;;;7.50;;
29402;SDS011;16382;59.942;30.472;2022-09-09T03:52:14;31.92;;;8.13;;
29402;SDS011;16382;59.942;30.472;2022-09-09T03:54:42;10.80;;;5.03;;
29402;SDS011;16382;59.942;30.472;2022-09-09T03:57:10;10.60;;;5.28;;
29402;SDS011;16382;59.942;30.472;2022-09-09T03:59:38;19.42;;;7.63;;
29402;SDS011;16382;59.942;30.472;2022-09-09T04:02:06;17.38;;;6.97;;
29402;SDS011;16382;59.942;30.472;2022-09-09T04:04:34;19.98;;;7.60;;
29402;SDS011;16382;59.942;30.472;2022-09-09T04:07:15;11.18;;;5.90;;
29402;SDS011;16382;59.942;30.472;2022-09-09T04:09:43;17.10;;;8.13;;
29402;SDS011;16382;59.942;30.472;2022-09-09T04:12:12;15.50;;;8.00;;
29402;SDS011;16382;59.942;30.472;2022-09-09T04:14:40;10.65;;;5.95;;
29402;SDS011;16382;59.942;30.472;2022-09-09T04:17:08;14.35;;;5.63;;
29402;SDS011;16382;59.942;30.472;2022-09-09T04:19:36;15.82;;;5.30;;
29402;SDS011;16382;59.942;30.472;2022-09-09T04:22:04;15.88;;;5.60;;
29402;SDS011;16382;59.942;30.472;2022-09-09T04:24:33;20.45;;;6.30;;
29402;SDS011;16382;59.942;30.472;2022-09-09T04:27:00;12.35;;;4.47;;
29402;SDS011;16382;59.942;30.472;2022-09-09T04:29:29;10.73;;;5.60;;
29402;SDS011;16382;59.942;30.472;2022-09-09T04:31:56;14.40;;;5.43;;
29402;SDS011;16382;59.942;30.472;2022-09-09T04:37:20;14.95;;;5.55;;
29402;SDS011;16382;59.942;30.472;2022-09-09T04:39:52;14.77;;;4.70;;
29402;SDS011;16382;59.942;30.472;2022-09-09T04:42:25;10.23;;;4.82;;
29402;SDS011;16382;59.942;30.472;2022-09-09T04:44:55;12.13;;;5.25;;
29402;SDS011;16382;59.942;30.472;2022-09-09T04:47:33;16.35;;;5.60;;
29402;SDS011;16382;59.942;30.472;2022-09-09T04:50:02;11.45;;;5.35;;
29402;SDS011;16382;59.942;30.472;2022-09-09T04:52:30;15.13;;;5.80;;
29402;SDS011;16382;59.942;30.472;2022-09-09T04:55:01;18.92;;;5.43;;
29402;SDS011;16382;59.942;30.472;2022-09-09T04:57:29;19.38;;;6.22;;
29402;SDS011;16382;59.942;30.472;2022-09-09T04:59:57;22.83;;;7.25;;
29402;SDS011;16382;59.942;30.472;2022-09-09T05:02:36;29.08;;;7.38;;
29402;SDS011;16382;59.942;30.472;2022-09-09T05:05:05;17.10;;;5.93;;
29402;SDS011;16382;59.942;30.472;2022-09-09T05:07:33;15.63;;;5.95;;
29402;SDS011;16382;59.942;30.472;2022-09-09T05:10:01;18.92;;;5.88;;
29402;SDS011;16382;59.942;30.472;2022-09-09T05:12:31;14.38;;;5.13;;
29402;SDS011;16382;59.942;30.472;2022-09-09T05:14:58;26.40;;;6.85;;
29402;SDS011;16382;59.942;30.472;2022-09-09T05:17:26;11.68;;;5.30;;
29402;SDS011;16382;59.942;30.472;2022-09-09T05:19:55;11.98;;;5.38;;
29402;SDS011;16382;59.942;30.472;2022-09-09T05:22:22;10.80;;;5.28;;
29402;SDS011;16382;59.942;30.472;2022-09-09T05:24:52;15.68;;;5.28;;
29402;SDS011;16382;59.942;30.472;2022-09-09T05:27:21;18.63;;;5.82;;
29402;SDS011;16382;59.942;30.472;2022-09-09T05:29:49;19.60;;;6.25;;
29402;SDS011;16382;59.942;30.472;2022-09-09T05:32:16;26.08;;;7.80;;
29402;SDS011;16382;59.942;30.472;2022-09-09T05:34:47;15.68;;;5.97;;
29402;SDS011;16382;59.942;30.472;2022-09-09T05:37:15;16.88;;;6.22;;
29402;SDS011;16382;59.942;30.472;2022-09-09T05:39:43;23.00;;;6.63;;
29402;SDS011;16382;59.942;30.472;2022-09-09T05:42:11;22.23;;;7.18;;
29402;SDS011;16382;59.942;30.472;2022-09-09T05:44:40;21.45;;;7.30;;
29402;SDS011;16382;59.942;30.472;2022-09-09T05:47:07;23.83;;;7.35;;
29402;SDS011;16382;59.942;30.472;2022-09-09T05:49:35;20.13;;;6.85;;
29402;SDS011;16382;59.942;30.472;2022-09-09T05:52:03;18.45;;;8.05;;
29402;SDS011;16382;59.942;30.472;2022-09-09T05:54:35;17.75;;;7.80;;
29402;SDS011;16382;59.942;30.472;2022-09-09T05:57:03;20.70;;;7.72;;
29402;SDS011;16382;59.942;30.472;2022-09-09T05:59:31;15.05;;;6.90;;
29402;SDS011;16382;59.942;30.472;2022-09-09T06:02:01;22.02;;;5.80;;
29402;SDS011;16382;59.942;30.472;2022-09-09T06:04:33;21.48;;;5.97;;
29402;SDS011;16382;59.942;30.472;2022-09-09T06:07:01;13.07;;;5.32;;
29402;SDS011;16382;59.942;30.472;2022-09-09T06:09:29;32.28;;;7.65;;
29402;SDS011;16382;59.942;30.472;2022-09-09T06:11:58;17.27;;;7.97;;
29402;SDS011;16382;59.942;30.472;2022-09-09T06:14:29;24.40;;;6.03;;
29402;SDS011;16382;59.942;30.472;2022-09-09T06:17:07;13.65;;;5.38;;
29402;SDS011;16382;59.942;30.472;2022-09-09T06:19:35;10.73;;;4.43;;
29402;SDS011;16382;59.942;30.472;2022-09-09T06:22:03;5.93;;;2.60;;
29402;SDS011;16382;59.942;30.472;2022-09-09T06:24:33;5.63;;;3.28;;
29402;SDS011;16382;59.942;30.472;2022-09-09T06:27:01;6.13;;;2.30;;
29402;SDS011;16382;59.942;30.472;2022-09-09T06:29:33;4.68;;;2.83;;
29402;SDS011;16382;59.942;30.472;2022-09-09T06:32:01;3.50;;;2.30;;
29402;SDS011;16382;59.942;30.472;2022-09-09T06:34:31;7.38;;;3.28;;
29402;SDS011;16382;59.942;30.472;2022-09-09T06:36:59;3.65;;;2.83;;
29402;SDS011;16382;59.942;30.472;2022-09-09T06:39:34;4.85;;;2.50;;
29402;SDS011;16382;59.942;30.472;2022-09-09T06:42:03;5.82;;;2.83;;
29402;SDS011;16382;59.942;30.472;2022-09-09T06:44:46;3.95;;;2.60;;
29402;SDS011;16382;59.942;30.472;2022-09-09T06:47:28;5.00;;;2.97;;
29402;SDS011;16382;59.942;30.472;2022-09-09T06:49:58;5.55;;;2.20;;
29402;SDS011;16382;59.942;30.472;2022-09-09T06:52:31;2.90;;;2.08;;
29402;SDS011;16382;59.942;30.472;2022-09-09T06:55:00;6.40;;;2.03;;
29402;SDS011;16382;59.942;30.472;2022-09-09T06:57:29;4.63;;;2.70;;
29402;SDS011;16382;59.942;30.472;2022-09-09T06:59:57;2.97;;;2.38;;
29402;SDS011;16382;59.942;30.472;2022-09-09T07:02:24;3.53;;;2.03;;
29402;SDS011;16382;59.942;30.472;2022-09-09T07:04:52;8.65;;;5.88;;
29402;SDS011;16382;59.942;30.472;2022-09-09T07:07:21;4.30;;;2.22;;
29402;SDS011;16382;59.942;30.472;2022-09-09T07:09:51;2.00;;;1.80;;
29402;SDS011;16382;59.942;30.472;2022-09-09T07:12:19;3.45;;;1.95;;
29402;SDS011;16382;59.942;30.472;2022-09-09T07:14:54;2.70;;;1.90;;
29402;SDS011;16382;59.942;30.472;2022-09-09T07:17:21;2.55;;;1.90;;
29402;SDS011;16382;59.942;30.472;2022-09-09T07:19:49;5.63;;;1.70;;
29402;SDS011;16382;59.942;30.472;2022-09-09T07:22:17;2.83;;;2.25;;
29402;SDS011;16382;59.942;30.472;2022-09-09T07:24:47;6.53;;;1.98;;
29402;SDS011;16382;59.942;30.472;2022-09-09T07:27:15;2.08;;;1.83;;
29402;SDS011;16382;59.942;30.472;2022-09-09T07:29:42;5.63;;;1.80;;
29402;SDS011;16382;59.942;30.472;2022-09-09T07:32:11;5.75;;;1.90;;
29402;SDS011;16382;59.942;30.472;2022-09-09T07:34:38;4.85;;;2.30;;
29402;SDS011;16382;59.942;30.472;2022-09-09T07:37:06;5.18;;;2.47;;
29402;SDS011;16382;59.942;30.472;2022-09-09T07:39:36;5.53;;;2.90;;
29402;SDS011;16382;59.942;30.472;2022-09-09T07:42:06;5.10;;;3.25;;
29402;SDS011;16382;59.942;30.472;2022-09-09T07:44:36;4.38;;;1.75;;
29402;SDS011;16382;59.942;30.472;2022-09-09T07:47:14;6.28;;;3.25;;
29402;SDS011;16382;59.942;30.472;2022-09-09T07:49:44;6.93;;;1.80;;
29402;SDS011;16382;59.942;30.472;2022-09-09T07:52:19;5.05;;;2.42;;
29402;SDS011;16382;59.942;30.472;2022-09-09T07:54:50;5.13;;;1.70;;
29402;SDS011;16382;59.942;30.472;2022-09-09T07:57:19;2.85;;;1.45;;
29402;SDS011;16382;59.942;30.472;2022-09-09T07:59:49;3.00;;;1.58;;
29402;SDS011;16382;59.942;30.472;2022-09-09T08:02:17;3.92;;;1.63;;
29402;SDS011;16382;59.942;30.472;2022-09-09T08:04:44;5.45;;;1.60;;
29402;SDS011;16382;59.942;30.472;2022-09-09T08:07:13;4.45;;;1.98;;
29402;SDS011;16382;59.942;30.472;2022-09-09T08:09:47;2.90;;;1.60;;
29402;SDS011;16382;59.942;30.472;2022-09-09T08:14:50;7.80;;;2.63;;
29402;SDS011;16382;59.942;30.472;2022-09-09T08:17:20;4.10;;;2.40;;
29402;SDS011;16382;59.942;30.472;2022-09-09T08:19:48;8.00;;;1.92;;
29402;SDS011;16382;59.942;30.472;2022-09-09T08:22:20;2.95;;;1.70;;
29402;SDS011;16382;59.942;30.472;2022-09-09T08:24:49;3.25;;;1.50;;
29402;SDS011;16382;59.942;30.472;2022-09-09T08:27:17;2.90;;;1.00;;
29402;SDS011;16382;59.942;30.472;2022-09-09T08:29:46;3.17;;;1.70;;
29402;SDS011;16382;59.942;30.472;2022-09-09T08:32:14;2.78;;;1.48;;
29402;SDS011;16382;59.942;30.472;2022-09-09T08:34:43;5.97;;;1.85;;
29402;SDS011;16382;59.942;30.472;2022-09-09T08:37:14;2.55;;;1.25;;
29402;SDS011;16382;59.942;30.472;2022-09-09T08:39:42;2.20;;;1.10;;
29402;SDS011;16382;59.942;30.472;2022-09-09T08:45:17;2.38;;;1.33;;
29402;SDS011;16382;59.942;30.472;2022-09-09T08:47:58;2.70;;;1.55;;
29402;SDS011;16382;59.942;30.472;2022-09-09T08:50:44;2.08;;;1.45;;
29402;SDS011;16382;59.942;30.472;2022-09-09T08:53:20;4.63;;;1.67;;
29402;SDS011;16382;59.942;30.472;2022-09-09T08:55:55;3.17;;;1.58;;
29402;SDS011;16382;59.942;30.472;2022-09-09T08:58:42;4.93;;;1.95;;
29402;SDS011;16382;59.942;30.472;2022-09-09T09:01:22;4.32;;;1.88;;
29402;SDS011;16382;59.942;30.472;2022-09-09T09:04:21;9.25;;;1.35;;
29402;SDS011;16382;59.942;30.472;2022-09-09T09:07:03;4.85;;;2.83;;
29402;SDS011;16382;59.942;30.472;2022-09-09T09:09:46;6.80;;;2.13;;
29402;SDS011;16382;59.942;30.472;2022-09-09T09:12:26;4.23;;;1.87;;
29402;SDS011;16382;59.942;30.472;2022-09-09T09:14:56;4.70;;;2.00;;
29402;SDS011;16382;59.942;30.472;2022-09-09T09:17:28;5.40;;;2.85;;
29402;SDS011;16382;59.942;30.472;2022-09-09T09:20:05;4.82;;;1.50;;
29402;SDS011;16382;59.942;30.472;2022-09-09T09:22:39;7.70;;;1.80;;
29402;SDS011;16382;59.942;30.472;2022-09-09T09:25:18;3.88;;;1.88;;
29402;SDS011;16382;59.942;30.472;2022-09-09T09:27:49;3.47;;;1.65;;
29402;SDS011;16382;59.942;30.472;2022-09-09T09:30:32;6.13;;;2.00;;
29402;SDS011;16382;59.942;30.472;2022-09-09T09:33:11;6.95;;;1.70;;
29402;SDS011;16382;59.942;30.472;2022-09-09T09:35:45;4.32;;;1.52;;
29402;SDS011;16382;59.942;30.472;2022-09-09T09:38:16;2.88;;;1.90;;
29402;SDS011;16382;59.942;30.472;2022-09-09T09:40:48;1.52;;;1.23;;
29402;SDS011;16382;59.942;30.472;2022-09-09T09:43:24;3.67;;;1.50;;
29402;SDS011;16382;59.942;30.472;2022-09-09T09:45:56;2.47;;;0.88;;
29402;SDS011;16382;59.942;30.472;2022-09-09T09:48:26;1.92;;;1.15;;
29402;SDS011;16382;59.942;30.472;2022-09-09T09:50:55;8.93;;;1.17;;
29402;SDS011;16382;59.942;30.472;2022-09-09T09:53:29;4.05;;;1.05;;
29402;SDS011;16382;59.942;30.472;2022-09-09T09:55:59;5.30;;;1.25;;
29402;SDS011;16382;59.942;30.472;2022-09-09T09:58:30;4.75;;;1.30;;
29402;SDS011;16382;59.942;30.472;2022-09-09T10:01:02;2.65;;;1.23;;
29402;SDS011;16382;59.942;30.472;2022-09-09T10:03:32;5.07;;;1.00;;
29402;SDS011;16382;59.942;30.472;2022-09-09T10:06:06;2.40;;;1.20;;
29402;SDS011;16382;59.942;30.472;2022-09-09T10:08:34;3.80;;;1.05;;
29402;SDS011;16382;59.942;30.472;2022-09-09T10:11:24;2.30;;;1.05;;
29402;SDS011;16382;59.942;30.472;2022-09-09T10:14:11;2.58;;;1.65;;
29402;SDS011;16382;59.942;30.472;2022-09-09T10:16:50;3.53;;;0.90;;
29402;SDS011;16382;59.942;30.472;2022-09-09T10:19:31;1.45;;;0.80;;
29402;SDS011;16382;59.942;30.472;2022-09-09T10:22:13;1.60;;;0.90;;
29402;SDS011;16382;59.942;30.472;2022-09-09T10:28:13;2.30;;;1.10;;
29402;SDS011;16382;59.942;30.472;2022-09-09T10:30:59;1.55;;;1.02;;
29402;SDS011;16382;59.942;30.472;2022-09-09T10:33:41;2.65;;;1.02;;
29402;SDS011;16382;59.942;30.472;2022-09-09T10:36:19;3.20;;;0.98;;
29402;SDS011;16382;59.942;30.472;2022-09-09T10:38:52;2.63;;;0.95;;
29402;SDS011;16382;59.942;30.472;2022-09-09T10:41:33;4.43;;;1.42;;
29402;SDS011;16382;59.942;30.472;2022-09-09T10:44:23;2.47;;;1.00;;
29402;SDS011;16382;59.942;30.472;2022-09-09T10:47:13;2.58;;;0.90;;
29402;SDS011;16382;59.942;30.472;2022-09-09T10:50:09;1.45;;;0.90;;
29402;SDS011;16382;59.942;30.472;2022-09-09T10:53:08;1.25;;;1.00;;
29402;SDS011;16382;59.942;30.472;2022-09-09T10:55:48;4.97;;;1.20;;
29402;SDS011;16382;59.942;30.472;2022-09-09T10:58:26;1.83;;;0.93;;
29402;SDS011;16382;59.942;30.472;2022-09-09T11:01:01;3.13;;;1.10;;
29402;SDS011;16382;59.942;30.472;2022-09-09T11:03:39;6.00;;;1.55;;
29402;SDS011;16382;59.942;30.472;2022-09-09T11:06:09;3.17;;;1.05;;
29402;SDS011;16382;59.942;30.472;2022-09-09T11:08:43;2.40;;;1.48;;
29402;SDS011;16382;59.942;30.472;2022-09-09T11:11:13;3.05;;;0.98;;
29402;SDS011;16382;59.942;30.472;2022-09-09T11:13:47;3.10;;;1.08;;
29402;SDS011;16382;59.942;30.472;2022-09-09T11:16:22;1.63;;;1.23;;
29402;SDS011;16382;59.942;30.472;2022-09-09T11:18:56;1.20;;;1.05;;
29402;SDS011;16382;59.942;30.472;2022-09-09T11:21:29;2.80;;;1.40;;
29402;SDS011;16382;59.942;30.472;2022-09-09T11:24:05;3.70;;;1.20;;
29402;SDS011;16382;59.942;30.472;2022-09-09T11:26:41;1.85;;;1.30;;
29402;SDS011;16382;59.942;30.472;2022-09-09T11:29:23;3.70;;;1.63;;
29402;SDS011;16382;59.942;30.472;2022-09-09T11:32:36;1.75;;;1.45;;
29402;SDS011;16382;59.942;30.472;2022-09-09T11:35:33;1.92;;;1.20;;
29402;SDS011;16382;59.942;30.472;2022-09-09T11:38:21;1.35;;;1.25;;
29402;SDS011;16382;59.942;30.472;2022-09-09T11:40:56;1.77;;;1.17;;
29402;SDS011;16382;59.942;30.472;2022-09-09T11:43:27;2.03;;;1.10;;
29402;SDS011;16382;59.942;30.472;2022-09-09T11:45:58;2.58;;;1.20;;
29402;SDS011;16382;59.942;30.472;2022-09-09T11:48:30;2.22;;;1.10;;
29402;SDS011;16382;59.942;30.472;2022-09-09T11:53:32;1.67;;;1.27;;
29402;SDS011;16382;59.942;30.472;2022-09-09T11:56:06;2.13;;;1.13;;
29402;SDS011;16382;59.942;30.472;2022-09-09T11:58:38;4.30;;;2.03;;
29402;SDS011;16382;59.942;30.472;2022-09-09T12:01:14;4.43;;;1.20;;
29402;SDS011;16382;59.942;30.472;2022-09-09T12:04:17;2.95;;;1.48;;
29402;SDS011;16382;59.942;30.472;2022-09-09T12:06:56;2.67;;;1.40;;
29402;SDS011;16382;59.942;30.472;2022-09-09T12:09:44;4.60;;;1.77;;
29402;SDS011;16382;59.942;30.472;2022-09-09T12:12:25;6.35;;;2.28;;
29402;SDS011;16382;59.942;30.472;2022-09-09T12:15:00;2.33;;;1.95;;
29402;SDS011;16382;59.942;30.472;2022-09-09T12:17:46;3.03;;;1.50;;
29402;SDS011;16382;59.942;30.472;2022-09-09T12:20:18;11.35;;;2.28;;
29402;SDS011;16382;59.942;30.472;2022-09-09T12:22:55;7.30;;;2.20;;
29402;SDS011;16382;59.942;30.472;2022-09-09T12:25:54;2.38;;;1.85;;
29402;SDS011;16382;59.942;30.472;2022-09-09T12:28:38;2.10;;;1.75;;
29402;SDS011;16382;59.942;30.472;2022-09-09T12:31:15;4.28;;;1.90;;
29402;SDS011;16382;59.942;30.472;2022-09-09T12:33:51;2.65;;;1.52;;
29402;SDS011;16382;59.942;30.472;2022-09-09T12:36:21;2.97;;;1.70;;
29402;SDS011;16382;59.942;30.472;2022-09-09T12:38:54;1.52;;;1.42;;
29402;SDS011;16382;59.942;30.472;2022-09-09T12:41:27;3.72;;;1.50;;
29402;SDS011;16382;59.942;30.472;2022-09-09T12:44:04;2.47;;;1.00;;
29402;SDS011;16382;59.942;30.472;2022-09-09T12:46:35;4.93;;;1.52;;
29402;SDS011;16382;59.942;30.472;2022-09-09T12:49:21;3.67;;;1.80;;
29402;SDS011;16382;59.942;30.472;2022-09-09T12:52:00;4.45;;;1.40;;
29402;SDS011;16382;59.942;30.472;2022-09-09T12:54:31;3.30;;;1.58;;
29402;SDS011;16382;59.942;30.472;2022-09-09T12:57:00;1.95;;;1.45;;
29402;SDS011;16382;59.942;30.472;2022-09-09T12:59:35;3.13;;;1.67;;
29402;SDS011;16382;59.942;30.472;2022-09-09T13:02:11;3.72;;;1.48;;
29402;SDS011;16382;59.942;30.472;2022-09-09T13:04:49;7.53;;;1.60;;
29402;SDS011;16382;59.942;30.472;2022-09-09T13:07:19;3.60;;;1.55;;
29402;SDS011;16382;59.942;30.472;2022-09-09T13:09:48;5.05;;;1.85;;
29402;SDS011;16382;59.942;30.472;2022-09-09T13:12:16;3.75;;;1.50;;
29402;SDS011;16382;59.942;30.472;2022-09-09T13:14:50;2.13;;;1.65;;
29402;SDS011;16382;59.942;30.472;2022-09-09T13:17:22;1.55;;;1.45;;
29402;SDS011;16382;59.942;30.472;2022-09-09T13:19:52;1.95;;;1.67;;
29402;SDS011;16382;59.942;30.472;2022-09-09T13:22:21;5.15;;;1.50;;
29402;SDS011;16382;59.942;30.472;2022-09-09T13:24:58;4.57;;;1.30;;
29402;SDS011;16382;59.942;30.472;2022-09-09T13:27:29;7.30;;;1.50;;
29402;SDS011;16382;59.942;30.472;2022-09-09T13:30:01;3.08;;;1.30;;
29402;SDS011;16382;59.942;30.472;2022-09-09T13:32:48;5.03;;;1.30;;
29402;SDS011;16382;59.942;30.472;2022-09-09T13:35:31;3.05;;;1.60;;
29402;SDS011;16382;59.942;30.472;2022-09-09T13:38:06;1.70;;;1.20;;
29402;SDS011;16382;59.942;30.472;2022-09-09T13:40:35;5.50;;;1.80;;
29402;SDS011;16382;59.942;30.472;2022-09-09T13:43:04;11.93;;;1.77;;
29402;SDS011;16382;59.942;30.472;2022-09-09T13:45:41;9.88;;;1.75;;
29402;SDS011;16382;59.942;30.472;2022-09-09T13:48:19;5.72;;;1.50;;
29402;SDS011;16382;59.942;30.472;2022-09-09T13:50:53;2.28;;;1.48;;
29402;SDS011;16382;59.942;30.472;2022-09-09T13:53:23;3.47;;;1.67;;
29402;SDS011;16382;59.942;30.472;2022-09-09T13:56:00;3.78;;;1.30;;
29402;SDS011;16382;59.942;30.472;2022-09-09T13:58:43;7.35;;;1.48;;
29402;SDS011;16382;59.942;30.472;2022-09-09T14:04:25;4.13;;;1.50;;
29402;SDS011;16382;59.942;30.472;2022-09-09T14:06:53;4.80;;;1.48;;
29402;SDS011;16382;59.942;30.472;2022-09-09T14:09:22;5.88;;;2.13;;
29402;SDS011;16382;59.942;30.472;2022-09-09T14:11:49;4.30;;;1.35;;
29402;SDS011;16382;59.942;30.472;2022-09-09T14:14:17;2.92;;;1.40;;
29402;SDS011;16382;59.942;30.472;2022-09-09T14:16:44;5.40;;;1.60;;
29402;SDS011;16382;59.942;30.472;2022-09-09T14:19:13;3.38;;;1.30;;
29402;SDS011;16382;59.942;30.472;2022-09-09T14:21:41;2.58;;;1.30;;
29402;SDS011;16382;59.942;30.472;2022-09-09T14:24:09;2.50;;;1.35;;
29402;SDS011;16382;59.942;30.472;2022-09-09T14:26:37;3.10;;;1.27;;
29402;SDS011;16382;59.942;30.472;2022-09-09T14:29:04;3.75;;;1.38;;
29402;SDS011;16382;59.942;30.472;2022-09-09T14:31:32;6.28;;;1.63;;
29402;SDS011;16382;59.942;30.472;2022-09-09T14:33:59;2.75;;;1.40;;
29402;SDS011;16382;59.942;30.472;2022-09-09T14:36:28;3.28;;;1.20;;
29402;SDS011;16382;59.942;30.472;2022-09-09T14:38:55;5.30;;;1.35;;
29402;SDS011;16382;59.942;30.472;2022-09-09T14:41:23;2.55;;;1.23;;
29402;SDS011;16382;59.942;30.472;2022-09-09T14:43:51;2.35;;;1.10;;
29402;SDS011;16382;59.942;30.472;2022-09-09T14:46:19;1.38;;;1.10;;
29402;SDS011;16382;59.942;30.472;2022-09-09T14:48:47;0.68;;;0.68;;
29402;SDS011;16382;59.942;30.472;2022-09-09T14:51:15;1.88;;;1.10;;
29402;SDS011;16382;59.942;30.472;2022-09-09T14:53:50;5.40;;;1.30;;
29402;SDS011;16382;59.942;30.472;2022-09-09T14:56:20;2.20;;;1.10;;
29402;SDS011;16382;59.942;30.472;2022-09-09T14:58:49;1.73;;;1.55;;
29402;SDS011;16382;59.942;30.472;2022-09-09T15:01:19;2.22;;;1.52;;
29402;SDS011;16382;59.942;30.472;2022-09-09T15:03:51;1.60;;;1.33;;
29402;SDS011;16382;59.942;30.472;2022-09-09T15:06:20;2.70;;;1.25;;
29402;SDS011;16382;59.942;30.472;2022-09-09T15:08:51;2.10;;;1.50;;
29402;SDS011;16382;59.942;30.472;2022-09-09T15:11:20;7.90;;;1.85;;
29402;SDS011;16382;59.942;30.472;2022-09-09T15:13:50;4.63;;;2.13;;
29402;SDS011;16382;59.942;30.472;2022-09-09T15:16:20;4.38;;;1.90;;
29402;SDS011;16382;59.942;30.472;2022-09-09T15:18:50;4.32;;;1.92;;
29402;SDS011;16382;59.942;30.472;2022-09-09T15:21:20;3.65;;;2.33;;
29402;SDS011;16382;59.942;30.472;2022-09-09T15:23:51;3.25;;;2.00;;